x

West Sea Otter (46204) Wave Buoy

11:00am - Tue 26th Sep 2017 All times are PDT. -7 hours from GMT.

  • Sig Wave height 3.9ft
  • Peak Period 10s
  • Wind
    16mph, 18mph gusts
  • Sea Temp 56°f
  • Air Temp 56°f
  • Sea Pressure 1022mb
  • West Sea Otter
  • West Sea Otter

More Historic Weather Station data

Upgrade to MSW Pro to gain access to the past 30 days of data for over 8000 Wavebouys and Weather Stations around the globe.

Join

Comparision Forecast

View Surf forecast
   
Tue 09/26 11:00am 4ft 10s 16 18 mph 1022mb 56f 56f
10:00am 4.5ft 9s 16 20 mph 1021.6mb 56f 56f
9:00am 4.5ft 10s 13 16 mph 1021.6mb 56f 56f
8:00am 5ft 9s 16 18 mph 1021.1mb 56f 55f
7:00am 5ft 10s 13 18 mph 1020.7mb 56f 55f
6:00am 5ft 9s 16 18 mph 1020.3mb 56f 56f
5:00am 5.5ft 10s 16 20 mph 1020.4mb 56f 55f
4:00am 5ft 10s 16 18 mph 1020.1mb 56f 55f
3:00am 5ft 9s 13 16 mph 1020.4mb 56f 55f
2:00am 5.5ft 9s 11 13 mph 1020.4mb 56f 55f
1:00am 6ft 8s 9 11 mph 1020mb 56f 55f
12:00am 6ft 10s 11 13 mph 1019.6mb 56f 55f
Mon 09/25 11:00pm 6ft 9s 11 13 mph 1019.2mb 56f 55f
10:00pm 5.5ft 9s 11 13 mph 1018.8mb 56f 55f
9:00pm 6ft 10s 9 11 mph 1018.3mb 56f 55f
8:00pm 6ft 8s 11 13 mph 1017.7mb 55f 55f
7:00pm 6ft 9s 9 11 mph 1017.4mb 55f 55f
6:00pm 6ft 10s 11 13 mph 1017.1mb 55f 55f
5:00pm 7ft 9s 11 13 mph 1016.9mb 55f 55f
4:00pm 6ft 9s 13 13 mph 1016.5mb 56f 55f
3:00pm 7ft 10s 13 18 mph 1016.4mb 56f 55f
2:00pm 7ft 10s 18 20 mph 1015.7mb 56f 55f
1:00pm 7ft 9s 18 22 mph 1015.6mb 56f 55f
12:00pm 7ft 10s 20 25 mph 1014.7mb 56f 55f
11:00am 8ft 9s 22 27 mph 1014.3mb 55f 55f
10:00am 8ft 10s 22 29 mph 1013.7mb 55f 56f
9:00am 8ft 8s 27 34 mph 1012.3mb 55f 56f
8:00am 7.5ft 8s 27 31 mph 1012.2mb 55f 56f
7:00am 7ft 10s 29 36 mph 1011.8mb 55f 56f
6:00am 7.5ft 8s 27 31 mph 1011.7mb 55f 56f
5:00am 7ft 8s 25 31 mph 1011.8mb 55f 55f
4:00am 6.5ft 8s 25 29 mph 1011.9mb 55f 56f
3:00am 6ft 10s 22 27 mph 1012.3mb 55f 55f
2:00am 6.5ft 9s 22 27 mph 1013mb 55f 56f
1:00am 6ft 9s 20 25 mph 1013.4mb 55f 55f
12:00am 7ft 9s 20 25 mph 1013.7mb 55f 55f
Sun 09/24 11:00pm 6ft 9s 25 29 mph 1014.1mb 56f 55f
10:00pm 7ft 9s 27 31 mph 1014.6mb 55f 55f
9:00pm 6ft 9s 25 31 mph 1014.8mb 55f 55f
8:00pm 6ft 10s 22 27 mph 1015.2mb 55f 55f
7:00pm 6ft 10s 22 27 mph 1015.6mb 55f 56f
6:00pm 5ft 10s 22 27 mph 1016.2mb 55f 55f
5:00pm 5.5ft 10s 22 29 mph 1016.5mb 55f 56f
4:00pm 5.5ft 8s 20 27 mph 1017.1mb 56f 56f
3:00pm 5ft 9s 20 25 mph 1017.5mb 56f 56f
2:00pm 5.5ft 9s 20 22 mph 1018mb 56f 56f
1:00pm 5ft 9s 20 25 mph 1018.2mb 56f 56f
12:00pm 5ft 9s 18 22 mph 1018.3mb 56f 56f
11:00am 5ft 9s 18 22 mph 1018.2mb 56f 56f
10:00am 4.5ft 10s 16 18 mph 1018.4mb 56f 56f
9:00am 4.5ft 10s 16 18 mph 1018.5mb 56f 56f
8:00am 4.5ft 10s 13 16 mph 1018.6mb 56f 56f
7:00am 4ft 9s 13 16 mph 1018.7mb 56f 55f
6:00am 4ft 11s 16 18 mph 1018.6mb 56f 55f
5:00am 4ft 10s 18 20 mph 1018.4mb 56f 56f
4:00am 4ft 8s 16 18 mph 1018.7mb 56f 56f
3:00am 4ft 11s 16 18 mph 1018.7mb 56f 56f
2:00am 4ft 7s 13 16 mph 1019.1mb 56f 55f
1:00am 4ft 7s 13 18 mph 1019.6mb 56f 55f
12:00am 3.5ft 11s 11 13 mph 1019.7mb 56f 55f
Sat 09/23 11:00pm 3.5ft 11s 11 13 mph 1019.6mb 56f 55f
10:00pm 3.5ft 11s 9 11 mph 1019.8mb 56f 55f
9:00pm 3.5ft 11s 7 9 mph 1019.9mb 56f 55f
8:00pm 3ft 13s 7 9 mph 1019.9mb 56f 55f
7:00pm 3ft 12s 4 7 mph 1019.7mb 56f 55f
6:00pm 3ft 9s 7 9 mph 1019.3mb 56f 55f
5:00pm 3ft 12s 7 9 mph 1019.7mb 56f 56f
4:00pm 3ft 6s 9 11 mph 1019.6mb 56f 55f
3:00pm 3.5ft 6s 9 11 mph 1019.2mb 56f 55f
2:00pm 3.5ft 7s 9 11 mph 1019.2mb 56f 54f
1:00pm 3.5ft 7s 11 13 mph 1019.3mb 56f 54f
12:00pm 3ft 6s 13 13 mph 1019.1mb 56f 54f
11:00am 2.5ft 6s 11 13 mph 1018.9mb 56f 54f
10:00am 2.5ft 7s 11 11 mph 1018.8mb 56f 54f
9:00am 2.5ft 6s 11 13 mph 1018mb 56f 53f
8:00am 2.5ft 7s 9 9 mph 1018.4mb 56f 54f
7:00am 2ft 11s 9 11 mph 1017.5mb 56f 54f
6:00am 2.5ft 12s 9 9 mph 1017.4mb 56f 54f
5:00am 2.5ft 6s 9 11 mph 1016.8mb 56f 54f
4:00am 2.5ft 11s 4 7 mph 1016.4mb 56f 54f
3:00am 2.5ft 6s 4 7 mph 1016.5mb 56f 54f
2:00am 2.5ft 5s 7 9 mph 1016.5mb 56f 54f
1:00am 2.5ft 7s 7 9 mph 1016.7mb 56f 53f
12:00am 2.5ft 6s 9 9 mph 1016.9mb 56f 53f
Fri 09/22 11:00pm 2.5ft 12s 9 9 mph 1017.1mb 56f 53f
10:00pm 2.5ft 12s 9 9 mph 1017.4mb 56f 53f
9:00pm 2.5ft 12s 7 9 mph 1017.6mb 56f 53f
8:00pm 2.5ft 12s 7 7 mph 1017.9mb 56f 54f